sensor_id;sensor_type;location;lat;lon;timestamp;pressure;altitude;pressure_sealevel;temperature;humidity
77086;BME280;66014;53.134;18.006;2022-12-31T00:01:51;100501.31;;;5.94;71.25
77086;BME280;66014;53.134;18.006;2022-12-31T00:04:19;100498.01;;;5.94;71.35
77086;BME280;66014;53.134;18.006;2022-12-31T00:06:46;100496.39;;;5.94;71.14
77086;BME280;66014;53.134;18.006;2022-12-31T00:09:12;100492.67;;;5.96;71.21
77086;BME280;66014;53.134;18.006;2022-12-31T00:11:39;100486.23;;;5.99;71.06
77086;BME280;66014;53.134;18.006;2022-12-31T00:14:06;100475.71;;;6.00;71.08
77086;BME280;66014;53.134;18.006;2022-12-31T00:16:38;100472.23;;;6.02;71.13
77086;BME280;66014;53.134;18.006;2022-12-31T00:19:07;100476.13;;;6.02;71.04
77086;BME280;66014;53.134;18.006;2022-12-31T00:21:35;100483.91;;;6.01;70.98
77086;BME280;66014;53.134;18.006;2022-12-31T00:24:03;100486.36;;;6.03;71.04
77086;BME280;66014;53.134;18.006;2022-12-31T00:26:32;100486.35;;;6.05;70.99
77086;BME280;66014;53.134;18.006;2022-12-31T00:29:00;100484.67;;;6.06;70.96
77086;BME280;66014;53.134;18.006;2022-12-31T00:31:29;100483.04;;;6.07;70.94
77086;BME280;66014;53.134;18.006;2022-12-31T00:33:57;100477.74;;;6.06;71.02
77086;BME280;66014;53.134;18.006;2022-12-31T00:36:31;100478.34;;;6.06;71.04
77086;BME280;66014;53.134;18.006;2022-12-31T00:39:00;100482.56;;;6.06;71.01
77086;BME280;66014;53.134;18.006;2022-12-31T00:41:28;100485.84;;;6.07;70.99
77086;BME280;66014;53.134;18.006;2022-12-31T00:43:56;100486.45;;;6.08;71.11
77086;BME280;66014;53.134;18.006;2022-12-31T00:46:24;100481.73;;;6.09;71.07
77086;BME280;66014;53.134;18.006;2022-12-31T00:48:51;100472.80;;;6.08;71.11
77086;BME280;66014;53.134;18.006;2022-12-31T00:51:20;100470.09;;;6.07;71.13
77086;BME280;66014;53.134;18.006;2022-12-31T00:53:47;100458.34;;;6.07;71.21
77086;BME280;66014;53.134;18.006;2022-12-31T00:56:20;100458.40;;;6.08;71.18
77086;BME280;66014;53.134;18.006;2022-12-31T00:58:47;100451.85;;;6.10;71.09
77086;BME280;66014;53.134;18.006;2022-12-31T01:01:25;100457.08;;;6.11;71.04
77086;BME280;66014;53.134;18.006;2022-12-31T01:03:56;100447.36;;;6.12;71.12
77086;BME280;66014;53.134;18.006;2022-12-31T01:06:23;100443.95;;;6.13;70.98
77086;BME280;66014;53.134;18.006;2022-12-31T01:08:50;100449.48;;;6.12;71.03
77086;BME280;66014;53.134;18.006;2022-12-31T01:11:18;100447.45;;;6.14;70.98
77086;BME280;66014;53.134;18.006;2022-12-31T01:13:54;100446.28;;;6.16;71.01
77086;BME280;66014;53.134;18.006;2022-12-31T01:16:25;100456.88;;;6.19;70.81
77086;BME280;66014;53.134;18.006;2022-12-31T01:18:52;100458.48;;;6.23;70.82
77086;BME280;66014;53.134;18.006;2022-12-31T01:21:19;100461.64;;;6.24;70.84
77086;BME280;66014;53.134;18.006;2022-12-31T01:23:46;100450.44;;;6.27;70.79
77086;BME280;66014;53.134;18.006;2022-12-31T01:26:14;100451.48;;;6.31;70.63
77086;BME280;66014;53.134;18.006;2022-12-31T01:28:42;100450.04;;;6.38;70.51
77086;BME280;66014;53.134;18.006;2022-12-31T01:31:14;100441.02;;;6.43;70.36
77086;BME280;66014;53.134;18.006;2022-12-31T01:33:41;100441.35;;;6.49;70.22
77086;BME280;66014;53.134;18.006;2022-12-31T01:36:20;100437.63;;;6.52;70.08
77086;BME280;66014;53.134;18.006;2022-12-31T01:38:47;100431.95;;;6.56;69.94
77086;BME280;66014;53.134;18.006;2022-12-31T01:41:16;100436.56;;;6.61;69.87
77086;BME280;66014;53.134;18.006;2022-12-31T01:46:58;100432.11;;;6.71;69.77
77086;BME280;66014;53.134;18.006;2022-12-31T01:49:39;100437.86;;;6.73;69.66
77086;BME280;66014;53.134;18.006;2022-12-31T01:52:21;100442.58;;;6.77;69.75
77086;BME280;66014;53.134;18.006;2022-12-31T01:55:01;100448.20;;;6.81;69.80
77086;BME280;66014;53.134;18.006;2022-12-31T01:57:29;100456.17;;;6.86;69.67
77086;BME280;66014;53.134;18.006;2022-12-31T01:59:57;100445.83;;;6.90;69.71
77086;BME280;66014;53.134;18.006;2022-12-31T02:02:25;100446.52;;;6.95;69.79
77086;BME280;66014;53.134;18.006;2022-12-31T02:04:54;100442.45;;;7.02;69.81
77086;BME280;66014;53.134;18.006;2022-12-31T02:07:23;100443.59;;;7.09;69.78
77086;BME280;66014;53.134;18.006;2022-12-31T02:09:50;100437.54;;;7.20;69.74
77086;BME280;66014;53.134;18.006;2022-12-31T02:12:17;100440.55;;;7.28;69.71
77086;BME280;66014;53.134;18.006;2022-12-31T02:14:50;100443.05;;;7.34;69.59
77086;BME280;66014;53.134;18.006;2022-12-31T02:20:26;100445.22;;;7.40;69.33
77086;BME280;66014;53.134;18.006;2022-12-31T02:23:23;100441.35;;;7.43;69.30
77086;BME280;66014;53.134;18.006;2022-12-31T02:29:16;100424.89;;;7.44;69.49
77086;BME280;66014;53.134;18.006;2022-12-31T02:31:59;100430.06;;;7.43;69.46
77086;BME280;66014;53.134;18.006;2022-12-31T02:34:41;100430.80;;;7.43;69.53
77086;BME280;66014;53.134;18.006;2022-12-31T02:37:12;100422.56;;;7.44;69.58
77086;BME280;66014;53.134;18.006;2022-12-31T02:39:42;100423.15;;;7.45;69.72
77086;BME280;66014;53.134;18.006;2022-12-31T02:42:09;100424.91;;;7.45;69.74
77086;BME280;66014;53.134;18.006;2022-12-31T02:44:39;100418.75;;;7.45;69.79
77086;BME280;66014;53.134;18.006;2022-12-31T02:55:34;100421.07;;;7.43;71.24
77086;BME280;66014;53.134;18.006;2022-12-31T03:00:48;100448.38;;;7.39;71.69
77086;BME280;66014;53.134;18.006;2022-12-31T03:03:36;100450.46;;;7.37;71.68
77086;BME280;66014;53.134;18.006;2022-12-31T03:06:05;100464.36;;;7.36;71.66
77086;BME280;66014;53.134;18.006;2022-12-31T03:08:33;100457.11;;;7.35;71.67
77086;BME280;66014;53.134;18.006;2022-12-31T03:11:19;100455.54;;;7.36;71.74
77086;BME280;66014;53.134;18.006;2022-12-31T03:14:05;100448.29;;;7.36;71.63
77086;BME280;66014;53.134;18.006;2022-12-31T03:16:32;100448.42;;;7.37;71.62
77086;BME280;66014;53.134;18.006;2022-12-31T03:19:00;100445.23;;;7.37;71.66
77086;BME280;66014;53.134;18.006;2022-12-31T03:21:45;100455.79;;;7.39;71.73
77086;BME280;66014;53.134;18.006;2022-12-31T03:24:30;100454.55;;;7.40;71.58
77086;BME280;66014;53.134;18.006;2022-12-31T03:27:15;100445.33;;;7.41;71.63
77086;BME280;66014;53.134;18.006;2022-12-31T03:29:42;100452.77;;;7.41;71.66
77086;BME280;66014;53.134;18.006;2022-12-31T03:32:12;100452.97;;;7.42;71.65
77086;BME280;66014;53.134;18.006;2022-12-31T03:34:38;100456.71;;;7.44;71.62
77086;BME280;66014;53.134;18.006;2022-12-31T03:37:05;100457.31;;;7.45;71.50
77086;BME280;66014;53.134;18.006;2022-12-31T03:39:31;100454.77;;;7.45;71.54
77086;BME280;66014;53.134;18.006;2022-12-31T03:41:58;100456.89;;;7.45;71.53
77086;BME280;66014;53.134;18.006;2022-12-31T03:44:24;100454.30;;;7.46;71.56
77086;BME280;66014;53.134;18.006;2022-12-31T03:46:51;100454.64;;;7.48;71.53
77086;BME280;66014;53.134;18.006;2022-12-31T03:49:17;100449.26;;;7.49;71.57
77086;BME280;66014;53.134;18.006;2022-12-31T03:51:44;100448.91;;;7.49;71.57
77086;BME280;66014;53.134;18.006;2022-12-31T03:54:10;100446.80;;;7.49;71.57
77086;BME280;66014;53.134;18.006;2022-12-31T03:56:37;100449.27;;;7.48;71.71
77086;BME280;66014;53.134;18.006;2022-12-31T03:59:03;100448.59;;;7.50;71.87
77086;BME280;66014;53.134;18.006;2022-12-31T04:01:31;100450.69;;;7.52;71.75
77086;BME280;66014;53.134;18.006;2022-12-31T04:03:58;100452.46;;;7.53;71.81
77086;BME280;66014;53.134;18.006;2022-12-31T04:06:24;100450.61;;;7.54;71.88
77086;BME280;66014;53.134;18.006;2022-12-31T04:08:51;100451.52;;;7.54;71.92
77086;BME280;66014;53.134;18.006;2022-12-31T04:11:17;100450.78;;;7.54;72.20
77086;BME280;66014;53.134;18.006;2022-12-31T04:13:44;100452.17;;;7.56;72.19
77086;BME280;66014;53.134;18.006;2022-12-31T04:16:10;100464.59;;;7.57;72.19
77086;BME280;66014;53.134;18.006;2022-12-31T04:18:37;100464.96;;;7.58;72.23
77086;BME280;66014;53.134;18.006;2022-12-31T04:21:04;100469.27;;;7.60;72.35
77086;BME280;66014;53.134;18.006;2022-12-31T04:23:30;100462.31;;;7.62;72.58
77086;BME280;66014;53.134;18.006;2022-12-31T04:25:57;100456.14;;;7.65;72.56
77086;BME280;66014;53.134;18.006;2022-12-31T04:28:23;100452.91;;;7.67;72.61
77086;BME280;66014;53.134;18.006;2022-12-31T04:30:50;100453.36;;;7.69;72.64
77086;BME280;66014;53.134;18.006;2022-12-31T04:33:17;100457.40;;;7.71;72.90
77086;BME280;66014;53.134;18.006;2022-12-31T04:35:44;100465.98;;;7.75;72.96
77086;BME280;66014;53.134;18.006;2022-12-31T04:38:10;100473.80;;;7.79;72.99
77086;BME280;66014;53.134;18.006;2022-12-31T04:40:37;100473.94;;;7.83;73.04
77086;BME280;66014;53.134;18.006;2022-12-31T04:43:23;100469.50;;;7.87;73.05
77086;BME280;66014;53.134;18.006;2022-12-31T04:45:50;100470.30;;;7.90;73.12
77086;BME280;66014;53.134;18.006;2022-12-31T04:48:16;100466.36;;;7.94;73.29
77086;BME280;66014;53.134;18.006;2022-12-31T04:50:45;100470.25;;;7.99;73.16
77086;BME280;66014;53.134;18.006;2022-12-31T04:53:12;100473.00;;;8.03;73.28
77086;BME280;66014;53.134;18.006;2022-12-31T04:55:40;100464.33;;;8.05;73.24
77086;BME280;66014;53.134;18.006;2022-12-31T04:58:07;100466.63;;;8.06;73.47
77086;BME280;66014;53.134;18.006;2022-12-31T05:00:33;100466.44;;;8.08;73.37
77086;BME280;66014;53.134;18.006;2022-12-31T05:03:00;100466.75;;;8.12;73.58
77086;BME280;66014;53.134;18.006;2022-12-31T05:05:29;100460.17;;;8.15;73.35
77086;BME280;66014;53.134;18.006;2022-12-31T05:07:55;100458.40;;;8.19;73.43
77086;BME280;66014;53.134;18.006;2022-12-31T05:10:22;100459.38;;;8.19;73.42
77086;BME280;66014;53.134;18.006;2022-12-31T05:12:48;100462.15;;;8.20;73.38
77086;BME280;66014;53.134;18.006;2022-12-31T05:15:15;100475.13;;;8.22;73.47
77086;BME280;66014;53.134;18.006;2022-12-31T05:17:41;100475.09;;;8.26;73.46
77086;BME280;66014;53.134;18.006;2022-12-31T05:20:08;100481.65;;;8.29;73.55
77086;BME280;66014;53.134;18.006;2022-12-31T05:22:35;100486.59;;;8.31;73.64
77086;BME280;66014;53.134;18.006;2022-12-31T05:25:01;100494.90;;;8.32;73.46
77086;BME280;66014;53.134;18.006;2022-12-31T05:27:29;100504.45;;;8.35;73.50
77086;BME280;66014;53.134;18.006;2022-12-31T05:29:56;100507.33;;;8.38;73.59
77086;BME280;66014;53.134;18.006;2022-12-31T05:32:22;100501.63;;;8.40;73.54
77086;BME280;66014;53.134;18.006;2022-12-31T05:34:49;100500.48;;;8.41;73.55
77086;BME280;66014;53.134;18.006;2022-12-31T05:37:15;100502.42;;;8.43;73.55
77086;BME280;66014;53.134;18.006;2022-12-31T05:39:42;100494.92;;;8.45;73.41
77086;BME280;66014;53.134;18.006;2022-12-31T05:42:08;100496.32;;;8.48;73.36
77086;BME280;66014;53.134;18.006;2022-12-31T05:44:35;100502.02;;;8.51;73.36
77086;BME280;66014;53.134;18.006;2022-12-31T05:47:01;100502.32;;;8.51;73.56
77086;BME280;66014;53.134;18.006;2022-12-31T05:49:28;100502.59;;;8.52;73.42
77086;BME280;66014;53.134;18.006;2022-12-31T05:51:54;100505.66;;;8.53;73.53
77086;BME280;66014;53.134;18.006;2022-12-31T05:54:21;100511.67;;;8.56;73.45
77086;BME280;66014;53.134;18.006;2022-12-31T05:56:47;100511.42;;;8.59;73.37
77086;BME280;66014;53.134;18.006;2022-12-31T05:59:14;100506.40;;;8.59;73.46
77086;BME280;66014;53.134;18.006;2022-12-31T06:01:40;100511.99;;;8.60;73.49
77086;BME280;66014;53.134;18.006;2022-12-31T06:04:07;100503.20;;;8.59;73.53
77086;BME280;66014;53.134;18.006;2022-12-31T06:06:33;100504.30;;;8.59;73.57
77086;BME280;66014;53.134;18.006;2022-12-31T06:09:00;100504.63;;;8.61;73.63
77086;BME280;66014;53.134;18.006;2022-12-31T06:11:26;100505.85;;;8.63;73.50
77086;BME280;66014;53.134;18.006;2022-12-31T06:13:53;100507.83;;;8.64;73.66
77086;BME280;66014;53.134;18.006;2022-12-31T06:16:19;100510.57;;;8.65;73.80
77086;BME280;66014;53.134;18.006;2022-12-31T06:18:46;100506.45;;;8.65;73.84
77086;BME280;66014;53.134;18.006;2022-12-31T06:21:17;100505.73;;;8.68;73.90
77086;BME280;66014;53.134;18.006;2022-12-31T06:23:43;100503.75;;;8.70;73.74
77086;BME280;66014;53.134;18.006;2022-12-31T06:26:10;100501.86;;;8.71;73.66
77086;BME280;66014;53.134;18.006;2022-12-31T06:28:36;100499.47;;;8.72;73.79
77086;BME280;66014;53.134;18.006;2022-12-31T06:31:06;100500.66;;;8.72;73.79
77086;BME280;66014;53.134;18.006;2022-12-31T06:33:33;100497.14;;;8.76;73.80
77086;BME280;66014;53.134;18.006;2022-12-31T06:36:02;100493.08;;;8.79;73.68
77086;BME280;66014;53.134;18.006;2022-12-31T06:38:30;100496.77;;;8.80;73.60
77086;BME280;66014;53.134;18.006;2022-12-31T06:41:02;100497.83;;;8.81;73.62
77086;BME280;66014;53.134;18.006;2022-12-31T06:43:28;100496.04;;;8.81;73.72
77086;BME280;66014;53.134;18.006;2022-12-31T06:46:05;100492.05;;;8.81;73.74
77086;BME280;66014;53.134;18.006;2022-12-31T06:48:32;100498.55;;;8.83;73.75
77086;BME280;66014;53.134;18.006;2022-12-31T06:51:08;100501.67;;;8.84;73.66
77086;BME280;66014;53.134;18.006;2022-12-31T06:53:35;100505.25;;;8.82;73.73
77086;BME280;66014;53.134;18.006;2022-12-31T06:56:07;100505.66;;;8.80;73.66
77086;BME280;66014;53.134;18.006;2022-12-31T06:58:34;100507.27;;;8.80;73.74
77086;BME280;66014;53.134;18.006;2022-12-31T07:04:00;100520.92;;;8.78;73.72
77086;BME280;66014;53.134;18.006;2022-12-31T07:06:51;100516.91;;;8.76;73.87
77086;BME280;66014;53.134;18.006;2022-12-31T07:09:35;100511.65;;;8.74;73.85
77086;BME280;66014;53.134;18.006;2022-12-31T07:12:30;100509.90;;;8.74;73.93
77086;BME280;66014;53.134;18.006;2022-12-31T07:15:06;100513.31;;;8.73;73.86
77086;BME280;66014;53.134;18.006;2022-12-31T07:18:22;100507.09;;;8.72;73.93
77086;BME280;66014;53.134;18.006;2022-12-31T07:20:54;100502.09;;;8.71;73.94
77086;BME280;66014;53.134;18.006;2022-12-31T07:23:20;100500.17;;;8.71;73.91
77086;BME280;66014;53.134;18.006;2022-12-31T07:25:59;100501.80;;;8.72;73.97
77086;BME280;66014;53.134;18.006;2022-12-31T07:29:07;100499.70;;;8.75;73.96
77086;BME280;66014;53.134;18.006;2022-12-31T07:37:16;100497.55;;;8.78;73.95
77086;BME280;66014;53.134;18.006;2022-12-31T07:40:07;100505.96;;;8.79;74.04
77086;BME280;66014;53.134;18.006;2022-12-31T07:45:27;100520.58;;;8.81;74.07
77086;BME280;66014;53.134;18.006;2022-12-31T07:47:57;100523.93;;;8.81;74.03
77086;BME280;66014;53.134;18.006;2022-12-31T07:50:24;100524.48;;;8.82;74.10
77086;BME280;66014;53.134;18.006;2022-12-31T07:52:51;100518.05;;;8.86;74.06
77086;BME280;66014;53.134;18.006;2022-12-31T07:55:18;100508.48;;;8.89;74.06
77086;BME280;66014;53.134;18.006;2022-12-31T07:58:00;100499.63;;;8.93;74.04
77086;BME280;66014;53.134;18.006;2022-12-31T08:00:31;100492.64;;;8.95;74.00
77086;BME280;66014;53.134;18.006;2022-12-31T08:09:07;100518.23;;;9.05;74.04
77086;BME280;66014;53.134;18.006;2022-12-31T08:11:58;100519.19;;;9.08;74.17
77086;BME280;66014;53.134;18.006;2022-12-31T08:14:25;100514.96;;;9.11;74.06
77086;BME280;66014;53.134;18.006;2022-12-31T08:16:53;100525.95;;;9.13;74.05
77086;BME280;66014;53.134;18.006;2022-12-31T08:19:26;100520.24;;;9.18;73.94
77086;BME280;66014;53.134;18.006;2022-12-31T08:22:07;100522.19;;;9.21;73.91
77086;BME280;66014;53.134;18.006;2022-12-31T08:27:42;100521.05;;;9.25;73.99
77086;BME280;66014;53.134;18.006;2022-12-31T08:30:14;100512.73;;;9.28;73.84
77086;BME280;66014;53.134;18.006;2022-12-31T08:41:07;100505.61;;;9.43;74.09
77086;BME280;66014;53.134;18.006;2022-12-31T08:49:30;100494.81;;;9.58;73.87
77086;BME280;66014;53.134;18.006;2022-12-31T08:51:58;100496.02;;;9.60;73.87
77086;BME280;66014;53.134;18.006;2022-12-31T08:54:25;100492.98;;;9.61;73.87
77086;BME280;66014;53.134;18.006;2022-12-31T09:05:22;100508.05;;;9.78;73.77
77086;BME280;66014;53.134;18.006;2022-12-31T09:10:45;100498.09;;;9.84;73.86
77086;BME280;66014;53.134;18.006;2022-12-31T09:13:30;100487.69;;;9.90;73.63
77086;BME280;66014;53.134;18.006;2022-12-31T09:17:02;100489.65;;;9.94;73.58
77086;BME280;66014;53.134;18.006;2022-12-31T09:19:08;100488.20;;;9.98;73.52
77086;BME280;66014;53.134;18.006;2022-12-31T09:21:35;100488.02;;;10.01;73.36
77086;BME280;66014;53.134;18.006;2022-12-31T09:24:04;100480.59;;;10.05;73.28
77086;BME280;66014;53.134;18.006;2022-12-31T09:26:35;100468.42;;;10.12;73.22
77086;BME280;66014;53.134;18.006;2022-12-31T09:29:56;100469.09;;;10.16;73.23
77086;BME280;66014;53.134;18.006;2022-12-31T09:35:13;100456.36;;;10.15;73.45
77086;BME280;66014;53.134;18.006;2022-12-31T09:37:48;100453.84;;;10.17;73.71
77086;BME280;66014;53.134;18.006;2022-12-31T09:40:48;100450.93;;;10.19;74.23
77086;BME280;66014;53.134;18.006;2022-12-31T09:52:38;100427.48;;;9.92;78.18
77086;BME280;66014;53.134;18.006;2022-12-31T10:00:54;100417.84;;;9.81;79.24
77086;BME280;66014;53.134;18.006;2022-12-31T10:03:56;100417.36;;;9.84;79.23
77086;BME280;66014;53.134;18.006;2022-12-31T10:09:16;100413.00;;;9.83;80.02
77086;BME280;66014;53.134;18.006;2022-12-31T10:20:54;100414.52;;;9.85;80.99
77086;BME280;66014;53.134;18.006;2022-12-31T10:26:22;100404.72;;;9.86;81.28
77086;BME280;66014;53.134;18.006;2022-12-31T10:29:39;100400.42;;;9.86;81.79
77086;BME280;66014;53.134;18.006;2022-12-31T10:32:18;100397.89;;;9.91;81.07
77086;BME280;66014;53.134;18.006;2022-12-31T10:37:27;100386.78;;;10.07;81.16
77086;BME280;66014;53.134;18.006;2022-12-31T10:40:33;100379.21;;;10.17;80.80
77086;BME280;66014;53.134;18.006;2022-12-31T10:52:04;100367.37;;;10.57;79.22
77086;BME280;66014;53.134;18.006;2022-12-31T10:57:39;100364.34;;;10.66;78.80
77086;BME280;66014;53.134;18.006;2022-12-31T11:00:20;100366.90;;;10.70;78.61
77086;BME280;66014;53.134;18.006;2022-12-31T11:05:55;100363.34;;;10.74;78.21
77086;BME280;66014;53.134;18.006;2022-12-31T11:11:30;100350.64;;;10.87;77.84
77086;BME280;66014;53.134;18.006;2022-12-31T11:19:47;100352.70;;;11.06;77.22
77086;BME280;66014;53.134;18.006;2022-12-31T11:22:35;100337.57;;;11.10;77.09
77086;BME280;66014;53.134;18.006;2022-12-31T11:28:27;100326.05;;;11.24;76.81
77086;BME280;66014;53.134;18.006;2022-12-31T11:34:07;100326.29;;;11.43;76.11
77086;BME280;66014;53.134;18.006;2022-12-31T11:36:52;100327.08;;;11.54;76.04
77086;BME280;66014;53.134;18.006;2022-12-31T11:42:26;100308.84;;;11.62;75.80
77086;BME280;66014;53.134;18.006;2022-12-31T11:45:14;100312.81;;;11.66;75.68
77086;BME280;66014;53.134;18.006;2022-12-31T11:48:01;100308.67;;;11.76;75.61
77086;BME280;66014;53.134;18.006;2022-12-31T11:50:39;100298.83;;;11.86;75.35
77086;BME280;66014;53.134;18.006;2022-12-31T11:56:16;100285.95;;;12.10;75.06
77086;BME280;66014;53.134;18.006;2022-12-31T11:58:50;100279.34;;;12.22;74.74
77086;BME280;66014;53.134;18.006;2022-12-31T12:01:35;100285.59;;;12.32;74.34
77086;BME280;66014;53.134;18.006;2022-12-31T12:04:09;100280.39;;;12.42;74.18
77086;BME280;66014;53.134;18.006;2022-12-31T12:06:36;100277.09;;;12.46;74.08
77086;BME280;66014;53.134;18.006;2022-12-31T12:09:10;100274.48;;;12.52;74.18
77086;BME280;66014;53.134;18.006;2022-12-31T12:11:39;100274.73;;;12.60;73.93
77086;BME280;66014;53.134;18.006;2022-12-31T12:14:30;100265.77;;;12.66;73.92
77086;BME280;66014;53.134;18.006;2022-12-31T12:16:58;100274.36;;;12.72;73.73
77086;BME280;66014;53.134;18.006;2022-12-31T12:19:30;100270.44;;;12.78;73.40
77086;BME280;66014;53.134;18.006;2022-12-31T12:21:57;100265.53;;;12.84;73.45
77086;BME280;66014;53.134;18.006;2022-12-31T12:24:29;100265.47;;;12.89;73.13
77086;BME280;66014;53.134;18.006;2022-12-31T12:26:56;100264.23;;;12.96;73.17
77086;BME280;66014;53.134;18.006;2022-12-31T12:29:29;100263.27;;;13.02;72.74
77086;BME280;66014;53.134;18.006;2022-12-31T12:32:15;100271.02;;;13.08;72.96
77086;BME280;66014;53.134;18.006;2022-12-31T12:34:45;100268.52;;;13.15;72.68
77086;BME280;66014;53.134;18.006;2022-12-31T12:37:41;100267.80;;;13.19;72.78
77086;BME280;66014;53.134;18.006;2022-12-31T12:40:21;100274.91;;;13.23;72.88
77086;BME280;66014;53.134;18.006;2022-12-31T12:42:52;100275.15;;;13.24;72.61
77086;BME280;66014;53.134;18.006;2022-12-31T12:45:23;100266.86;;;13.26;72.85
77086;BME280;66014;53.134;18.006;2022-12-31T12:47:54;100261.52;;;13.30;72.75
77086;BME280;66014;53.134;18.006;2022-12-31T12:50:24;100263.45;;;13.34;72.69
77086;BME280;66014;53.134;18.006;2022-12-31T12:53:01;100262.64;;;13.40;72.47
77086;BME280;66014;53.134;18.006;2022-12-31T13:01:12;100272.02;;;13.70;71.70
77086;BME280;66014;53.134;18.006;2022-12-31T13:09:40;100278.79;;;14.00;70.77
77086;BME280;66014;53.134;18.006;2022-12-31T13:12:26;100276.61;;;14.07;70.74
77086;BME280;66014;53.134;18.006;2022-12-31T13:15:17;100276.88;;;14.12;70.66
77086;BME280;66014;53.134;18.006;2022-12-31T13:18:31;100284.08;;;14.17;70.66
77086;BME280;66014;53.134;18.006;2022-12-31T13:26:35;100290.56;;;14.26;70.59
77086;BME280;66014;53.134;18.006;2022-12-31T13:29:10;100296.83;;;14.26;70.43
77086;BME280;66014;53.134;18.006;2022-12-31T13:31:41;100298.76;;;14.25;70.41
77086;BME280;66014;53.134;18.006;2022-12-31T13:34:16;100298.59;;;14.24;70.36
77086;BME280;66014;53.134;18.006;2022-12-31T13:36:46;100300.95;;;14.26;70.45
77086;BME280;66014;53.134;18.006;2022-12-31T13:39:19;100297.85;;;14.28;70.51
77086;BME280;66014;53.134;18.006;2022-12-31T13:42:43;100300.73;;;14.27;70.41
77086;BME280;66014;53.134;18.006;2022-12-31T13:44:48;100296.20;;;14.29;70.50
77086;BME280;66014;53.134;18.006;2022-12-31T13:47:35;100301.05;;;14.29;70.57
77086;BME280;66014;53.134;18.006;2022-12-31T13:50:15;100302.50;;;14.30;70.47
77086;BME280;66014;53.134;18.006;2022-12-31T13:52:50;100301.26;;;14.30;70.66
77086;BME280;66014;53.134;18.006;2022-12-31T13:55:39;100301.80;;;14.27;70.68
77086;BME280;66014;53.134;18.006;2022-12-31T13:58:27;100309.93;;;14.25;70.70
77086;BME280;66014;53.134;18.006;2022-12-31T14:01:19;100312.35;;;14.26;70.83
77086;BME280;66014;53.134;18.006;2022-12-31T14:06:56;100311.94;;;14.25;70.80
77086;BME280;66014;53.134;18.006;2022-12-31T14:09:28;100316.17;;;14.24;70.71
77086;BME280;66014;53.134;18.006;2022-12-31T14:14:39;100320.10;;;14.23;70.86
77086;BME280;66014;53.134;18.006;2022-12-31T14:25:43;100326.01;;;14.14;71.11
77086;BME280;66014;53.134;18.006;2022-12-31T14:28:19;100322.71;;;14.11;71.22
77086;BME280;66014;53.134;18.006;2022-12-31T14:30:51;100320.24;;;14.09;71.38
77086;BME280;66014;53.134;18.006;2022-12-31T14:33:36;100325.15;;;14.05;71.49
77086;BME280;66014;53.134;18.006;2022-12-31T14:39:32;100325.64;;;13.98;71.60
77086;BME280;66014;53.134;18.006;2022-12-31T14:42:20;100330.50;;;13.94;71.78
77086;BME280;66014;53.134;18.006;2022-12-31T14:45:05;100337.66;;;13.92;71.78
77086;BME280;66014;53.134;18.006;2022-12-31T14:48:22;100341.86;;;13.90;71.80
77086;BME280;66014;53.134;18.006;2022-12-31T14:50:55;100345.77;;;13.86;71.99
77086;BME280;66014;53.134;18.006;2022-12-31T14:53:26;100351.74;;;13.84;72.07
77086;BME280;66014;53.134;18.006;2022-12-31T14:58:38;100363.48;;;13.86;72.19
77086;BME280;66014;53.134;18.006;2022-12-31T15:01:18;100364.88;;;13.88;72.14
77086;BME280;66014;53.134;18.006;2022-12-31T15:03:47;100371.08;;;13.89;72.21
77086;BME280;66014;53.134;18.006;2022-12-31T15:17:17;100369.70;;;14.01;72.06
77086;BME280;66014;53.134;18.006;2022-12-31T15:24:49;100382.35;;;14.03;71.97
77086;BME280;66014;53.134;18.006;2022-12-31T15:29:53;100389.06;;;14.02;71.97
77086;BME280;66014;53.134;18.006;2022-12-31T15:32:27;100390.37;;;14.01;72.02
77086;BME280;66014;53.134;18.006;2022-12-31T15:35:24;100387.45;;;13.98;71.99
77086;BME280;66014;53.134;18.006;2022-12-31T15:38:30;100388.18;;;13.98;72.07
77086;BME280;66014;53.134;18.006;2022-12-31T15:41:00;100383.86;;;13.99;72.00
77086;BME280;66014;53.134;18.006;2022-12-31T15:46:41;100389.21;;;13.95;72.13
77086;BME280;66014;53.134;18.006;2022-12-31T15:49:16;100388.84;;;13.92;72.15
77086;BME280;66014;53.134;18.006;2022-12-31T15:52:03;100385.51;;;13.91;72.24
77086;BME280;66014;53.134;18.006;2022-12-31T15:55:18;100388.05;;;13.90;72.18
77086;BME280;66014;53.134;18.006;2022-12-31T15:57:48;100386.98;;;13.89;72.18
77086;BME280;66014;53.134;18.006;2022-12-31T16:00:21;100385.59;;;13.90;72.22
77086;BME280;66014;53.134;18.006;2022-12-31T16:02:52;100394.27;;;13.92;72.17
77086;BME280;66014;53.134;18.006;2022-12-31T16:05:28;100393.61;;;13.94;72.12
77086;BME280;66014;53.134;18.006;2022-12-31T16:08:00;100387.64;;;14.00;72.02
77086;BME280;66014;53.134;18.006;2022-12-31T16:10:29;100381.73;;;14.03;71.89
77086;BME280;66014;53.134;18.006;2022-12-31T16:12:57;100387.02;;;14.05;71.81
77086;BME280;66014;53.134;18.006;2022-12-31T16:15:28;100388.71;;;14.09;71.79
77086;BME280;66014;53.134;18.006;2022-12-31T16:18:01;100388.06;;;14.12;71.69
77086;BME280;66014;53.134;18.006;2022-12-31T16:20:31;100388.77;;;14.18;71.46
77086;BME280;66014;53.134;18.006;2022-12-31T16:23:00;100391.06;;;14.22;71.38
77086;BME280;66014;53.134;18.006;2022-12-31T16:25:30;100400.61;;;14.25;71.27
77086;BME280;66014;53.134;18.006;2022-12-31T16:28:00;100392.91;;;14.29;71.17
77086;BME280;66014;53.134;18.006;2022-12-31T16:30:29;100400.85;;;14.32;71.13
77086;BME280;66014;53.134;18.006;2022-12-31T16:33:05;100412.58;;;14.34;71.17
77086;BME280;66014;53.134;18.006;2022-12-31T16:35:38;100417.42;;;14.34;71.22